Time;durP1;ratioP1;P1;durP2;ratioP2;P2;SDS_P1;SDS_P2;PMS_P1;PMS_P2;Temp;Humidity;BMP_temperature;BMP_pressure;BME280_temperature;BME280_humidity;BME280_pressure;Samples;Min_cycle;Max_cycle;Signal;HPM_P1;HPM_P2
2023/04/26 00:01:34;;;;;;;813.63;764.43;;;1.40;99.90;;;;;;6185366;23;20416;-81
2023/04/26 00:04:01;;;;;;;747.77;707.10;;;1.40;99.90;;;;;;6185651;23;20433;-81
2023/04/26 00:06:28;;;;;;;800.73;751.87;;;1.40;99.90;;;;;;6185284;23;20455;-81
2023/04/26 00:08:55;;;;;;;789.73;742.73;;;1.40;99.90;;;;;;6185311;23;20905;-81
2023/04/26 00:11:23;;;;;;;791.23;742.57;;;1.40;99.90;;;;;;6185532;23;20420;-81
2023/04/26 00:13:50;;;;;;;804.60;754.57;;;1.30;99.90;;;;;;6185539;23;20763;-81
2023/04/26 00:16:18;;;;;;;827.13;771.27;;;1.30;99.90;;;;;;6185367;23;20807;-81
2023/04/26 00:18:46;;;;;;;800.97;748.33;;;1.30;99.90;;;;;;6185208;23;20420;-81
2023/04/26 00:21:13;;;;;;;806.67;755.97;;;1.20;99.90;;;;;;6185481;23;20417;-81
2023/04/26 00:23:41;;;;;;;804.10;753.72;;;1.30;99.90;;;;;;6184935;23;20688;-81
2023/04/26 00:26:09;;;;;;;807.63;754.83;;;1.40;99.90;;;;;;6185381;23;20189;-81
2023/04/26 00:28:37;;;;;;;807.40;756.33;;;1.40;99.90;;;;;;6184873;23;20456;-81
2023/04/26 00:31:03;;;;;;;811.33;758.90;;;1.40;99.90;;;;;;6185334;23;20417;-81
2023/04/26 00:33:30;;;;;;;813.58;760.05;;;1.40;99.90;;;;;;6185036;23;20190;-81
2023/04/26 00:35:57;;;;;;;806.58;754.05;;;1.30;99.90;;;;;;6185453;23;20176;-81
2023/04/26 00:38:24;;;;;;;833.17;778.40;;;1.20;99.90;;;;;;6185120;23;20170;-81
2023/04/26 00:40:51;;;;;;;833.37;775.77;;;1.10;99.90;;;;;;6185368;23;20421;-81
2023/04/26 00:43:18;;;;;;;833.22;774.85;;;1.10;99.90;;;;;;6184775;23;20433;-81
2023/04/26 00:45:46;;;;;;;830.27;771.27;;;1.10;99.90;;;;;;6185169;23;20190;-81
2023/04/26 00:48:13;;;;;;;825.92;765.40;;;1.10;99.90;;;;;;6184594;23;20419;-81
2023/04/26 00:50:40;;;;;;;827.63;767.88;;;1.20;99.90;;;;;;6185114;23;20176;-81
2023/04/26 00:53:08;;;;;;;816.90;760.17;;;1.20;99.90;;;;;;6184515;23;20189;-81
2023/04/26 00:55:36;;;;;;;818.00;763.50;;;1.20;99.90;;;;;;6159347;23;20409;-81
2023/04/26 00:58:02;;;;;;;813.27;759.97;;;1.20;99.90;;;;;;6184499;23;20504;-81
2023/04/26 01:00:29;;;;;;;796.67;748.97;;;1.20;99.90;;;;;;6184954;23;20763;-81
2023/04/26 01:02:57;;;;;;;799.13;750.55;;;1.20;99.90;;;;;;6184907;23;20417;-81
2023/04/26 01:05:26;;;;;;;801.17;750.57;;;1.30;99.90;;;;;;6184579;23;20176;-81
2023/04/26 01:07:54;;;;;;;802.72;752.15;;;1.30;99.90;;;;;;6184673;23;20424;-81
2023/04/26 01:10:21;;;;;;;816.63;763.43;;;1.30;99.90;;;;;;6184929;23;20173;-81
2023/04/26 01:12:48;;;;;;;829.70;774.23;;;1.30;99.90;;;;;;6184458;23;20423;-81
2023/04/26 01:15:15;;;;;;;822.58;767.00;;;1.20;99.90;;;;;;6184820;23;20790;-81
2023/04/26 01:17:45;;;;;;;814.88;760.60;;;1.10;99.90;;;;;;6184280;23;20181;-81
2023/04/26 01:20:14;;;;;;;824.80;768.35;;;1.00;99.90;;;;;;6184629;23;20158;-81
2023/04/26 01:22:42;;;;;;;812.33;760.50;;;1.00;99.90;;;;;;6184679;23;20170;-81
2023/04/26 01:25:11;;;;;;;837.47;779.00;;;1.10;99.90;;;;;;6184550;23;20447;-81
2023/04/26 01:27:38;;;;;;;823.97;765.77;;;1.00;99.90;;;;;;6184177;23;20437;-82
2023/04/26 01:30:07;;;;;;;846.42;785.15;;;1.00;99.90;;;;;;6184867;23;20418;-81
2023/04/26 01:32:34;;;;;;;857.78;797.20;;;0.90;99.90;;;;;;6184419;23;20185;-82
2023/04/26 01:35:01;;;;;;;854.50;793.63;;;0.90;99.90;;;;;;6184679;23;20259;-81
2023/04/26 01:37:28;;;;;;;851.00;789.37;;;0.80;99.90;;;;;;6184312;23;20173;-81
2023/04/26 01:39:56;;;;;;;850.42;790.22;;;0.70;99.90;;;;;;6184891;23;20413;-81
2023/04/26 01:42:23;;;;;;;856.20;796.25;;;0.60;99.90;;;;;;6184491;23;20169;-81
2023/04/26 01:44:50;;;;;;;867.17;806.20;;;0.50;99.90;;;;;;6184609;23;20580;-81
2023/04/26 01:47:17;;;;;;;870.10;807.72;;;0.40;99.90;;;;;;6184037;23;20433;-81
2023/04/26 01:49:44;;;;;;;867.70;803.85;;;0.30;99.90;;;;;;6157945;23;20177;-81
2023/04/26 01:52:11;;;;;;;859.30;795.67;;;0.20;99.90;;;;;;6184262;23;20255;-80
2023/04/26 01:54:37;;;;;;;852.80;788.47;;;0.20;99.90;;;;;;6184239;23;20436;-81
2023/04/26 01:57:08;;;;;;;832.90;772.03;;;0.30;99.90;;;;;;6184598;23;20415;-81
2023/04/26 01:59:35;;;;;;;853.22;791.33;;;0.30;99.90;;;;;;6184274;23;20157;-81
2023/04/26 02:02:02;;;;;;;844.85;785.08;;;0.30;99.90;;;;;;6184575;23;20511;-81
2023/04/26 02:04:29;;;;;;;843.72;783.85;;;0.30;99.90;;;;;;6183583;23;20217;-81
2023/04/26 02:06:56;;;;;;;818.30;759.92;;;0.20;99.90;;;;;;6184366;23;20194;-81
2023/04/26 02:09:23;;;;;;;832.15;774.30;;;0.10;99.90;;;;;;6183890;23;20621;-81
2023/04/26 02:11:49;;;;;;;851.15;788.50;;;0.10;99.90;;;;;;6184490;23;20169;-81
2023/04/26 02:14:19;;;;;;;844.08;778.58;;;0.00;99.90;;;;;;6184059;23;20268;-81
2023/04/26 02:16:47;;;;;;;831.92;767.67;;;0.10;99.90;;;;;;6157580;23;20173;-81
2023/04/26 02:19:14;;;;;;;849.03;784.13;;;0.00;99.90;;;;;;6184045;23;20177;-81
2023/04/26 02:21:52;;;;;;;847.83;783.85;;;0.10;99.90;;;;;;6184498;23;20208;-81
2023/04/26 02:24:22;;;;;;;849.92;786.35;;;0.10;99.90;;;;;;6183950;23;20665;-81
2023/04/26 02:26:49;;;;;;;832.55;769.30;;;0.00;99.90;;;;;;6184011;23;20480;-82
2023/04/26 02:29:17;;;;;;;833.47;770.10;;;0.00;99.90;;;;;;6184523;23;20241;-81
2023/04/26 02:31:47;;;;;;;856.35;790.17;;;-0.10;99.90;;;;;;6184359;23;20783;-81
2023/04/26 02:34:14;;;;;;;840.90;776.17;;;0.00;99.90;;;;;;6184537;23;20212;-81
2023/04/26 02:36:42;;;;;;;821.45;758.53;;;-0.10;99.90;;;;;;6184474;23;20412;-81
2023/04/26 02:39:09;;;;;;;814.35;753.30;;;-0.10;99.90;;;;;;6183974;23;20175;-81
2023/04/26 02:41:36;;;;;;;818.75;758.80;;;-0.10;99.90;;;;;;6184484;23;20174;-81
2023/04/26 02:44:02;;;;;;;816.58;756.92;;;-0.20;99.90;;;;;;6183845;23;20222;-81
2023/04/26 02:46:31;;;;;;;817.50;757.80;;;-0.20;99.90;;;;;;6183704;23;20190;-81
2023/04/26 02:48:58;;;;;;;828.13;767.13;;;-0.20;99.90;;;;;;6183986;23;20260;-81
2023/04/26 02:51:25;;;;;;;834.95;773.20;;;-0.20;99.90;;;;;;6184239;23;20184;-81
2023/04/26 02:53:52;;;;;;;839.05;777.50;;;-0.10;99.90;;;;;;6158393;23;20209;-81
2023/04/26 02:56:19;;;;;;;833.25;772.97;;;-0.10;99.90;;;;;;6184204;23;20189;-81
2023/04/26 02:58:48;;;;;;;822.40;764.13;;;-0.10;99.90;;;;;;6184000;23;20173;-81
2023/04/26 03:01:16;;;;;;;818.03;759.00;;;-0.20;99.90;;;;;;6184048;23;20200;-81
2023/04/26 03:03:46;;;;;;;818.65;759.20;;;-0.20;99.90;;;;;;6183542;23;20193;-81
2023/04/26 03:06:12;;;;;;;811.05;751.75;;;-0.20;99.90;;;;;;6184110;23;20269;-80
2023/04/26 03:08:39;;;;;;;812.85;754.00;;;-0.30;99.90;;;;;;6183218;23;20206;-80
2023/04/26 03:11:06;;;;;;;806.28;747.60;;;-0.40;99.90;;;;;;6183396;23;20173;-81
2023/04/26 03:13:33;;;;;;;803.17;744.13;;;-0.50;99.90;;;;;;6184126;23;20190;-81
2023/04/26 03:16:00;;;;;;;795.83;738.60;;;-0.50;99.90;;;;;;6184351;23;20506;-81
2023/04/26 03:18:27;;;;;;;778.72;721.55;;;-0.70;99.90;;;;;;6185841;23;20192;-81
2023/04/26 03:20:55;;;;;;;782.55;725.25;;;-0.70;99.90;;;;;;6185491;23;20176;-81
2023/04/26 03:23:23;;;;;;;782.38;724.65;;;-0.70;99.90;;;;;;6186140;23;20244;-81
2023/04/26 03:25:50;;;;;;;796.65;738.65;;;-0.80;99.90;;;;;;6186110;23;20170;-82
2023/04/26 03:28:17;;;;;;;776.83;718.92;;;-0.70;99.90;;;;;;6185471;23;20190;-81
2023/04/26 03:30:44;;;;;;;769.90;713.05;;;-0.80;99.90;;;;;;6185249;23;20174;-81
2023/04/26 03:33:11;;;;;;;783.10;726.40;;;-0.80;99.90;;;;;;6185502;23;20197;-83
2023/04/26 03:35:37;;;;;;;789.63;731.40;;;-0.90;99.90;;;;;;6185807;23;20170;-81
2023/04/26 03:38:06;;;;;;;783.08;725.72;;;-0.90;99.90;;;;;;6185648;23;20173;-80
2023/04/26 03:40:32;;;;;;;766.50;709.30;;;-0.90;99.90;;;;;;6159720;23;20174;-80
2023/04/26 03:43:00;;;;;;;780.38;722.17;;;-0.80;99.90;;;;;;6185804;23;20507;-80
2023/04/26 03:45:27;;;;;;;777.30;719.30;;;-0.80;99.90;;;;;;6185641;23;20177;-80
2023/04/26 03:47:54;;;;;;;776.20;719.35;;;-0.90;99.90;;;;;;6185638;23;20717;-81
2023/04/26 03:50:21;;;;;;;766.72;710.30;;;-0.90;99.90;;;;;;6185847;23;20170;-80
2023/04/26 03:52:50;;;;;;;784.67;728.13;;;-0.90;99.90;;;;;;6185662;23;20264;-80
2023/04/26 03:55:18;;;;;;;786.53;729.35;;;-1.00;99.90;;;;;;6185335;23;20229;-80
2023/04/26 03:57:45;;;;;;;785.75;726.90;;;-1.00;99.90;;;;;;6185011;23;20166;-81
2023/04/26 04:00:14;;;;;;;798.45;739.75;;;-1.00;99.90;;;;;;6185700;23;20177;-81
2023/04/26 04:02:41;;;;;;;779.35;721.67;;;-1.00;99.90;;;;;;6159152;23;20805;-80
2023/04/26 04:05:09;;;;;;;775.55;716.30;;;-1.00;99.90;;;;;;6185511;23;20190;-80
2023/04/26 04:07:36;;;;;;;756.03;699.22;;;-0.80;99.90;;;;;;6184792;23;20927;-81
2023/04/26 04:10:02;;;;;;;748.25;692.47;;;-0.90;99.90;;;;;;6184790;23;20228;-82
2023/04/26 04:12:31;;;;;;;749.10;693.20;;;-0.90;99.90;;;;;;6185385;23;20785;-81
2023/04/26 04:14:58;;;;;;;752.85;697.85;;;-0.90;99.90;;;;;;6158460;23;20661;-80
2023/04/26 04:17:25;;;;;;;769.70;712.30;;;-0.90;99.90;;;;;;6184533;23;20172;-80
2023/04/26 04:19:51;;;;;;;776.88;717.60;;;-1.00;99.90;;;;;;6185559;23;20175;-80
2023/04/26 04:22:18;;;;;;;776.38;716.83;;;-1.00;99.90;;;;;;6185198;23;20177;-81
2023/04/26 04:24:46;;;;;;;763.53;705.85;;;-0.90;99.90;;;;;;6184066;23;20190;-80
2023/04/26 04:27:13;;;;;;;769.85;711.95;;;-0.90;99.90;;;;;;6184473;23;20189;-80
2023/04/26 04:29:42;;;;;;;754.70;697.40;;;-0.90;99.90;;;;;;6184852;23;20227;-81
2023/04/26 04:32:09;;;;;;;768.63;710.38;;;-0.90;99.90;;;;;;6185377;23;20224;-80
2023/04/26 04:34:36;;;;;;;784.78;724.10;;;-0.90;99.90;;;;;;6185317;23;20190;-81
2023/04/26 04:37:04;;;;;;;801.15;741.03;;;-0.90;99.90;;;;;;6185345;23;20165;-80
2023/04/26 04:39:30;;;;;;;798.15;737.10;;;-0.90;99.90;;;;;;6159227;23;20178;-80
2023/04/26 04:41:59;;;;;;;786.08;724.47;;;-0.90;99.90;;;;;;6185315;23;20170;-80
2023/04/26 04:44:26;;;;;;;797.05;736.50;;;-0.80;99.90;;;;;;6184821;23;20194;-80
2023/04/26 04:46:55;;;;;;;796.95;736.25;;;-0.70;99.90;;;;;;6184806;23;20192;-81
2023/04/26 04:49:23;;;;;;;821.03;757.25;;;-0.60;99.90;;;;;;6184022;23;20252;-80
2023/04/26 04:51:50;;;;;;;811.97;748.60;;;-0.50;99.90;;;;;;6184698;23;20486;-80
2023/04/26 04:54:18;;;;;;;800.53;737.45;;;-0.40;99.90;;;;;;6184776;23;20217;-80
2023/04/26 04:56:46;;;;;;;809.33;746.22;;;-0.30;99.90;;;;;;6184246;23;20220;-80
2023/04/26 04:59:13;;;;;;;826.05;762.78;;;-0.30;99.90;;;;;;6158847;23;20176;-80
2023/04/26 05:01:39;;;;;;;829.38;765.47;;;-0.20;99.90;;;;;;6184619;23;20182;-80
2023/04/26 05:04:08;;;;;;;837.28;772.38;;;-0.10;99.90;;;;;;6184354;23;20221;-80
2023/04/26 05:06:35;;;;;;;842.55;773.97;;;0.00;99.90;;;;;;6184599;23;20180;-80
2023/04/26 05:09:03;;;;;;;826.50;758.50;;;0.10;99.90;;;;;;6184290;23;20174;-80
2023/04/26 05:11:30;;;;;;;837.63;769.03;;;0.20;99.90;;;;;;6185121;23;20449;-80
2023/04/26 05:13:57;;;;;;;850.65;779.60;;;0.30;99.90;;;;;;6184522;23;20200;-80
2023/04/26 05:16:24;;;;;;;825.17;753.50;;;0.50;99.90;;;;;;6194936;23;20177;-80
2023/04/26 05:18:52;;;;;;;820.70;748.05;;;0.70;99.90;;;;;;6184404;23;20274;-81
2023/04/26 05:21:22;;;;;;;833.75;755.30;;;0.90;99.90;;;;;;6184283;23;20197;-81
2023/04/26 05:23:49;;;;;;;829.20;747.93;;;1.10;99.90;;;;;;6187327;23;20224;-81
2023/04/26 05:26:18;;;;;;;801.23;721.03;;;1.50;99.90;;;;;;6184603;23;20464;-81
2023/04/26 05:28:45;;;;;;;773.63;696.60;;;1.80;99.90;;;;;;6183431;23;20463;-81
2023/04/26 05:31:11;;;;;;;735.33;662.70;;;2.30;99.90;;;;;;6184712;23;20414;-82
2023/04/26 05:33:40;;;;;;;646.20;585.57;;;2.70;99.90;;;;;;6184400;23;20433;-82
2023/04/26 05:36:09;;;;;;;612.83;558.37;;;3.10;99.90;;;;;;6184424;23;20484;-82
2023/04/26 05:38:38;;;;;;;608.60;560.47;;;3.40;99.90;;;;;;6182935;23;20909;-82
2023/04/26 05:41:05;;;;;;;490.77;460.20;;;3.80;99.90;;;;;;6183185;23;20913;-82
2023/04/26 05:43:32;;;;;;;280.43;265.00;;;4.20;99.90;;;;;;6183667;23;20433;-82
2023/04/26 05:45:59;;;;;;;158.97;150.03;;;4.50;99.90;;;;;;6183847;23;20964;-82
2023/04/26 05:48:26;;;;;;;125.80;118.37;;;4.70;99.90;;;;;;6183859;23;20492;-82
2023/04/26 05:50:53;;;;;;;37.10;33.97;;;5.00;99.90;;;;;;6194077;23;20423;-81
2023/04/26 05:53:20;;;;;;;22.30;17.90;;;5.30;99.90;;;;;;6183607;23;20455;-83
2023/04/26 05:55:48;;;;;;;15.07;9.27;;;5.60;99.90;;;;;;6183721;23;20421;-83
2023/04/26 05:58:15;;;;;;;15.43;8.87;;;5.70;99.90;;;;;;6182917;23;20414;-86
2023/04/26 06:00:43;;;;;;;18.53;8.70;;;5.90;99.90;;;;;;6183014;23;20444;-83
2023/04/26 06:03:10;;;;;;;19.63;9.20;;;6.10;99.90;;;;;;6184382;23;20439;-82
2023/04/26 06:05:37;;;;;;;17.53;7.70;;;6.30;99.90;;;;;;6184024;23;20500;-83
2023/04/26 06:08:05;;;;;;;26.23;7.87;;;6.40;99.90;;;;;;6182604;23;20442;-83
2023/04/26 06:10:33;;;;;;;12.83;7.30;;;6.50;99.90;;;;;;6183401;23;20543;-82
2023/04/26 06:13:01;;;;;;;15.00;8.60;;;6.50;99.90;;;;;;6183790;23;20421;-82
2023/04/26 06:15:28;;;;;;;24.30;8.23;;;6.50;99.90;;;;;;6182735;23;20439;-82
2023/04/26 06:17:55;;;;;;;17.80;9.80;;;6.50;99.90;;;;;;6183452;23;20421;-82
2023/04/26 06:20:22;;;;;;;21.10;8.97;;;6.50;99.90;;;;;;6183288;23;20413;-82
2023/04/26 06:22:49;;;;;;;20.20;8.80;;;6.70;99.90;;;;;;6183167;23;20413;-82
2023/04/26 06:25:16;;;;;;;18.23;9.20;;;6.80;99.90;;;;;;6183206;23;20413;-82
2023/04/26 06:27:42;;;;;;;31.10;9.70;;;6.70;99.90;;;;;;6182341;23;20445;-82
2023/04/26 06:30:11;;;;;;;22.83;8.73;;;6.60;99.90;;;;;;6182456;23;20419;-81
2023/04/26 06:32:39;;;;;;;26.87;11.57;;;6.70;99.90;;;;;;6182619;23;20913;-82
2023/04/26 06:35:06;;;;;;;25.30;11.10;;;6.50;99.90;;;;;;6182668;23;20989;-82
2023/04/26 06:37:34;;;;;;;18.20;9.60;;;6.50;99.90;;;;;;6183214;23;20432;-82
2023/04/26 06:40:01;;;;;;;28.77;10.13;;;6.50;99.90;;;;;;6183682;23;20496;-83
2023/04/26 06:42:28;;;;;;;22.73;9.03;;;6.60;99.90;;;;;;6157601;23;21062;-82
2023/04/26 06:45:05;;;;;;;20.23;9.30;;;6.80;99.90;;;;;;6156897;23;20437;-81
2023/04/26 06:47:33;;;;;;;25.10;8.00;;;7.10;99.90;;;;;;6183223;23;20421;-82
2023/04/26 06:50:00;;;;;;;17.27;8.43;;;7.30;99.90;;;;;;6181586;23;20419;-81
2023/04/26 06:52:28;;;;;;;15.93;6.97;;;7.50;99.90;;;;;;6185124;23;20516;-82
2023/04/26 06:54:55;;;;;;;25.30;8.93;;;7.70;99.90;;;;;;6184220;23;20483;-83
2023/04/26 06:57:23;;;;;;;18.27;7.73;;;7.90;99.90;;;;;;6182549;23;20415;-82
2023/04/26 06:59:51;;;;;;;12.87;6.63;;;8.00;99.90;;;;;;6184110;23;20439;-82
2023/04/26 07:02:18;;;;;;;15.60;6.43;;;8.00;99.90;;;;;;6157133;23;20481;-81
2023/04/26 07:04:46;;;;;;;25.17;8.37;;;8.00;99.00;;;;;;6183112;23;20436;-81
2023/04/26 07:07:15;;;;;;;9.50;5.57;;;8.20;99.20;;;;;;6181592;23;20409;-82
2023/04/26 07:09:42;;;;;;;13.47;6.33;;;8.20;97.40;;;;;;6157610;23;20416;-82
2023/04/26 07:12:11;;;;;;;19.40;5.67;;;8.10;97.30;;;;;;6159395;23;20504;-81
2023/04/26 07:14:39;;;;;;;16.03;6.17;;;8.20;97.40;;;;;;6194562;23;20436;-81
2023/04/26 07:17:06;;;;;;;19.90;6.70;;;8.40;97.50;;;;;;6186142;23;20420;-83
2023/04/26 07:19:33;;;;;;;11.67;6.77;;;8.50;95.60;;;;;;6184712;23;20428;-82
2023/04/26 07:22:02;;;;;;;13.97;5.60;;;8.60;97.00;;;;;;6194650;23;20880;-82
2023/04/26 07:24:29;;;;;;;11.47;5.70;;;8.80;93.00;;;;;;6157565;23;20433;-81
2023/04/26 07:26:56;;;;;;;20.70;5.07;;;8.70;93.20;;;;;;6184984;23;20739;-82
2023/04/26 07:29:23;;;;;;;19.13;5.47;;;8.70;93.00;;;;;;6185243;23;20421;-82
2023/04/26 07:31:50;;;;;;;15.37;6.00;;;8.90;94.30;;;;;;6158803;23;20417;-82
2023/04/26 07:34:19;;;;;;;10.87;5.23;;;9.00;91.00;;;;;;6184877;23;20436;-84
2023/04/26 07:36:48;;;;;;;12.17;4.33;;;8.80;90.90;;;;;;6185558;23;20470;-83
2023/04/26 07:39:16;;;;;;;14.43;5.55;;;9.10;91.10;;;;;;6193207;23;20801;-82
2023/04/26 07:41:43;;;;;;;7.23;3.40;;;9.20;86.30;;;;;;6185431;23;20205;-83
2023/04/26 07:44:10;;;;;;;13.53;4.83;;;9.30;84.30;;;;;;6195180;23;20457;-82
2023/04/26 07:46:37;;;;;;;10.73;3.93;;;9.30;86.20;;;;;;6195557;23;20441;-82
2023/04/26 07:49:04;;;;;;;11.00;3.80;;;9.70;81.30;;;;;;6184181;23;20484;-82
2023/04/26 07:51:31;;;;;;;10.20;4.07;;;10.20;77.10;;;;;;6194745;23;20412;-82
2023/04/26 07:53:58;;;;;;;8.87;3.77;;;10.60;77.50;;;;;;6194859;23;20433;-82
2023/04/26 07:56:27;;;;;;;10.80;4.47;;;11.00;76.00;;;;;;6195510;23;20411;-83
2023/04/26 07:58:55;;;;;;;9.03;3.10;;;10.70;73.20;;;;;;6195031;23;20413;-82
2023/04/26 08:01:22;;;;;;;15.80;3.43;;;10.50;74.60;;;;;;6195205;23;20451;-82
2023/04/26 08:03:49;;;;;;;10.57;3.70;;;10.30;73.90;;;;;;6183318;23;20948;-82
2023/04/26 08:06:16;;;;;;;10.07;4.63;;;10.10;69.20;;;;;;6194470;23;20777;-82
2023/04/26 08:08:48;;;;;;;12.03;3.53;;;10.30;71.70;;;;;;6194825;23;20444;-82
2023/04/26 08:11:15;;;;;;;13.17;4.20;;;10.20;69.30;;;;;;6194744;23;20449;-82
2023/04/26 08:13:43;;;;;;;9.30;4.23;;;10.70;69.60;;;;;;6194571;23;20433;-82
2023/04/26 08:16:10;;;;;;;9.73;4.20;;;10.90;69.90;;;;;;6184892;23;20499;-82
2023/04/26 08:18:37;;;;;;;12.40;4.10;;;11.30;68.00;;;;;;6194548;23;20440;-82
2023/04/26 08:21:05;;;;;;;15.40;7.20;;;11.80;66.10;;;;;;6195229;23;20416;-83
2023/04/26 08:23:34;;;;;;;11.10;3.97;;;11.40;66.50;;;;;;6194749;23;20512;-82
2023/04/26 08:26:02;;;;;;;26.03;5.13;;;11.70;68.50;;;;;;6194772;23;20929;-82
2023/04/26 08:28:29;;;;;;;11.70;4.90;;;11.40;70.30;;;;;;6194112;23;20932;-82
2023/04/26 08:30:58;;;;;;;12.60;5.00;;;11.50;69.20;;;;;;6194508;23;20944;-82
2023/04/26 08:33:25;;;;;;;14.27;5.17;;;11.80;65.10;;;;;;6194048;23;20421;-82
2023/04/26 08:35:52;;;;;;;11.90;5.80;;;12.00;62.80;;;;;;6195067;23;20475;-82
2023/04/26 08:38:21;;;;;;;12.07;5.03;;;11.90;61.80;;;;;;6194139;23;20516;-82
2023/04/26 08:40:48;;;;;;;12.77;4.33;;;11.40;62.20;;;;;;6194564;23;20428;-82
2023/04/26 08:43:16;;;;;;;13.97;4.33;;;11.50;63.60;;;;;;6193694;23;20437;-82
2023/04/26 08:45:46;;;;;;;12.47;4.80;;;11.50;62.30;;;;;;6194261;23;20417;-82
2023/04/26 08:48:16;;;;;;;27.67;6.53;;;10.70;67.50;;;;;;6194183;23;20413;-82
2023/04/26 08:50:45;;;;;;;12.60;5.30;;;11.10;67.50;;;;;;6194549;23;20479;-82
2023/04/26 08:53:16;;;;;;;17.47;4.00;;;11.30;65.90;;;;;;6194753;23;20479;-83
2023/04/26 08:55:47;;;;;;;13.53;3.60;;;11.20;60.90;;;;;;6194344;23;20416;-82
2023/04/26 08:58:15;;;;;;;11.27;3.97;;;11.20;62.10;;;;;;6194243;23;20984;-83
2023/04/26 09:00:44;;;;;;;13.17;3.80;;;11.10;62.80;;;;;;6194428;23;20448;-83
2023/04/26 09:03:12;;;;;;;7.67;2.97;;;11.30;62.20;;;;;;6182855;23;20433;-83
2023/04/26 09:05:44;;;;;;;10.43;4.40;;;11.50;60.40;;;;;;6193440;23;20411;-83
2023/04/26 09:08:16;;;;;;;9.30;4.13;;;11.50;55.90;;;;;;6192692;23;20413;-83
2023/04/26 09:10:43;;;;;;;14.60;5.00;;;11.90;58.30;;;;;;6193829;23;20503;-83
2023/04/26 09:13:11;;;;;;;11.80;3.20;;;11.90;59.00;;;;;;6193528;23;20773;-83
2023/04/26 09:15:38;;;;;;;16.47;3.97;;;12.30;58.50;;;;;;6193560;23;20409;-83
2023/04/26 09:18:19;;;;;;;9.33;3.73;;;12.50;52.70;;;;;;6184134;23;20433;-83
2023/04/26 09:21:03;;;;;;;7.00;2.40;;;12.60;48.50;;;;;;6194107;23;20424;-82
2023/04/26 09:23:30;;;;;;;11.60;2.50;;;12.90;46.60;;;;;;6193996;23;20953;-82
2023/04/26 09:26:15;;;;;;;11.53;3.93;;;12.60;46.30;;;;;;6193835;23;20417;-82
2023/04/26 09:28:42;;;;;;;11.10;2.57;;;12.40;48.10;;;;;;6183692;23;20479;-83
2023/04/26 09:31:10;;;;;;;8.97;2.77;;;12.10;45.80;;;;;;6184018;23;20423;-82
2023/04/26 09:33:57;;;;;;;7.77;2.57;;;12.60;46.30;;;;;;6183363;23;20528;-82
2023/04/26 09:36:25;;;;;;;11.53;3.30;;;12.90;45.30;;;;;;6184107;23;20972;-82
2023/04/26 09:38:52;;;;;;;9.00;2.67;;;13.20;46.90;;;;;;6184123;23;20441;-82
2023/04/26 09:41:19;;;;;;;7.13;2.40;;;13.10;43.00;;;;;;6193972;23;20416;-83
2023/04/26 09:43:48;;;;;;;9.70;3.10;;;13.20;46.90;;;;;;6157482;23;21104;-82
2023/04/26 09:46:23;;;;;;;8.33;2.80;;;13.20;46.90;;;;;;6194288;23;20810;-82
2023/04/26 09:49:01;;;;;;;6.63;2.03;;;12.50;40.30;;;;;;6183344;23;20396;-82
2023/04/26 09:51:31;;;;;;;7.83;2.43;;;12.20;37.10;;;;;;6184310;23;20463;-83
2023/04/26 09:53:57;;;;;;;7.70;2.27;;;12.30;42.50;;;;;;6183548;23;20437;-82
2023/04/26 09:56:24;;;;;;;6.83;2.70;;;12.60;36.30;;;;;;6184038;23;20923;-83
2023/04/26 09:58:59;;;;;;;5.53;2.23;;;13.30;40.30;;;;;;6183484;23;20960;-82
2023/04/26 10:01:28;;;;;;;11.33;2.73;;;13.40;31.10;;;;;;6184284;23;20413;-82
2023/04/26 10:03:56;;;;;;;8.57;2.00;;;14.10;28.80;;;;;;6182510;23;20433;-82
2023/04/26 10:06:23;;;;;;;7.67;2.40;;;14.30;26.50;;;;;;6183311;23;20420;-82
2023/04/26 10:08:51;;;;;;;5.93;2.17;;;14.10;24.70;;;;;;6156700;23;20491;-82
2023/04/26 10:11:20;;;;;;;13.73;1.87;;;14.20;26.30;;;;;;6183558;23;20414;-82
2023/04/26 10:13:50;;;;;;;12.13;2.77;;;13.80;24.20;;;;;;6183838;23;20830;-83
2023/04/26 10:16:18;;;;;;;6.63;2.23;;;13.40;26.10;;;;;;6157225;23;20733;-82
2023/04/26 10:18:45;;;;;;;8.47;2.50;;;13.50;29.60;;;;;;6183889;23;20449;-82
2023/04/26 10:21:17;;;;;;;11.27;2.50;;;14.20;29.90;;;;;;6183937;23;20414;-82
2023/04/26 10:29:05;;;;;;;11.57;3.60;;;17.70;21.60;;;;;;6159038;23;20459;-81
2023/04/26 10:32:05;;;;;;;10.80;2.57;;;17.30;13.60;;;;;;6154321;23;20918;-81
2023/04/26 10:34:35;;;;;;;8.43;2.70;;;17.10;13.70;;;;;;6143642;23;20461;-81
2023/04/26 10:37:10;;;;;;;5.50;1.80;;;16.00;12.10;;;;;;6152431;23;20791;-81
2023/04/26 10:39:37;;;;;;;7.83;2.70;;;15.00;11.80;;;;;;6154472;23;20517;-81
2023/04/26 10:42:25;;;;;;;8.97;3.53;;;14.80;16.00;;;;;;6154209;23;20433;-81
2023/04/26 10:44:55;;;;;;;12.00;2.50;;;14.50;15.80;;;;;;6163332;23;20828;-81
2023/04/26 10:47:31;;;;;;;7.10;2.53;;;15.00;16.80;;;;;;6153913;23;20421;-81
2023/04/26 10:50:09;;;;;;;10.53;2.33;;;14.10;22.70;;;;;;6153665;23;20924;-81
2023/04/26 10:52:37;;;;;;;4.27;1.17;;;13.60;25.30;;;;;;6163960;23;20407;-80
2023/04/26 10:55:06;;;;;;;6.73;1.73;;;12.90;29.10;;;;;;6152271;23;20811;-80
2023/04/26 10:57:50;;;;;;;6.60;2.63;;;12.40;26.30;;;;;;6154162;23;20415;-81
2023/04/26 11:29:12;;;;;;;7.47;2.23;;;15.30;8.80;;;;;;6177760;23;20841;-79
2023/04/26 11:31:39;;;;;;;9.97;2.20;;;15.40;13.10;;;;;;6193435;23;20421;-79
2023/04/26 11:34:06;;;;;;;5.87;2.30;;;15.30;12.20;;;;;;6183684;23;20526;-80
2023/04/26 11:36:36;;;;;;;5.43;2.10;;;15.30;11.80;;;;;;6183459;23;21013;-80
2023/04/26 11:39:04;;;;;;;20.83;2.63;;;15.10;12.40;;;;;;6185185;23;20472;-80
2023/04/26 11:41:31;;;;;;;8.00;2.33;;;15.90;7.00;;;;;;6195671;23;20411;-80
2023/04/26 11:43:59;;;;;;;6.07;2.10;;;17.00;6.00;;;;;;6185386;23;20432;-80
2023/04/26 11:46:26;;;;;;;5.17;1.80;;;17.00;5.90;;;;;;6185631;23;20420;-80
2023/04/26 11:48:56;;;;;;;9.80;2.53;;;15.90;13.50;;;;;;6184995;23;20499;-80
2023/04/26 11:51:24;;;;;;;7.10;2.20;;;16.10;5.80;;;;;;6159002;23;20426;-80
2023/04/26 11:53:54;;;;;;;9.57;1.87;;;16.30;2.10;;;;;;6184266;23;20447;-81
2023/04/26 11:56:22;;;;;;;6.50;2.87;;;16.00;4.60;;;;;;6184429;23;20426;-82
2023/04/26 11:58:50;;;;;;;7.87;2.97;;;15.60;4.30;;;;;;6184395;23;20438;-80
2023/04/26 12:01:24;;;;;;;8.77;3.07;;;15.10;13.50;;;;;;6184070;23;20480;-81
2023/04/26 12:03:52;;;;;;;5.47;2.40;;;14.90;11.70;;;;;;6182260;23;20465;-81
2023/04/26 12:06:20;;;;;;;7.70;2.37;;;14.10;13.70;;;;;;6183912;23;20465;-81
2023/04/26 12:08:51;;;;;;;8.10;2.60;;;14.30;15.60;;;;;;6184901;23;20415;-83
2023/04/26 12:11:20;;;;;;;12.40;2.90;;;14.30;11.20;;;;;;6185145;23;20403;-83
2023/04/26 12:13:49;;;;;;;9.00;2.57;;;14.10;12.40;;;;;;6184345;23;20749;-83
2023/04/26 12:16:16;;;;;;;10.77;2.90;;;14.10;13.30;;;;;;6185458;23;20446;-83
2023/04/26 12:18:50;;;;;;;6.80;2.70;;;14.30;15.60;;;;;;6184682;23;20958;-83
2023/04/26 12:21:17;;;;;;;8.40;2.23;;;14.20;10.50;;;;;;6185386;23;20406;-83
2023/04/26 12:23:46;;;;;;;7.43;2.77;;;14.50;12.70;;;;;;6184503;23;20434;-83
2023/04/26 12:26:14;;;;;;;10.20;3.53;;;14.50;11.50;;;;;;6185178;23;20415;-83
2023/04/26 12:28:42;;;;;;;10.20;3.23;;;14.60;14.40;;;;;;6184573;23;20427;-83
2023/04/26 12:31:10;;;;;;;8.20;2.70;;;15.30;11.90;;;;;;6184962;23;20426;-83
2023/04/26 12:33:37;;;;;;;13.60;3.30;;;15.40;13.10;;;;;;6184756;23;20585;-83
2023/04/26 12:36:08;;;;;;;10.80;3.30;;;15.90;11.90;;;;;;6184818;23;20475;-83
2023/04/26 12:38:35;;;;;;;7.03;3.23;;;15.90;10.90;;;;;;6184415;23;20503;-83
2023/04/26 12:41:02;;;;;;;9.33;3.70;;;16.20;7.10;;;;;;6185155;23;20424;-83
2023/04/26 12:43:29;;;;;;;10.90;2.73;;;16.80;6.10;;;;;;6184140;23;20433;-83
2023/04/26 12:45:57;;;;;;;8.47;3.53;;;16.90;2.30;;;;;;6184683;23;20415;-83
2023/04/26 12:48:24;;;;;;;9.23;3.03;;;16.60;6.00;;;;;;6184014;23;20424;-84
2023/04/26 12:50:51;;;;;;;8.63;3.10;;;16.40;4.40;;;;;;6184730;23;20421;-83
2023/04/26 12:53:18;;;;;;;7.53;3.20;;;16.20;6.40;;;;;;6184654;23;20849;-83
2023/04/26 12:55:46;;;;;;;7.20;3.30;;;16.60;6.10;;;;;;6185041;23;20450;-83
2023/04/26 12:58:16;;;;;;;8.13;2.73;;;17.40;8.40;;;;;;6194633;23;20828;-83
2023/04/26 13:00:43;;;;;;;7.30;2.80;;;18.70;1.90;;;;;;6159590;23;20424;-84
2023/04/26 13:03:13;;;;;;;7.70;3.13;;;18.30;1.00;;;;;;6183289;23;20461;-83
2023/04/26 13:05:40;;;;;;;12.60;4.90;;;18.50;5.40;;;;;;6182735;23;20422;-84
2023/04/26 13:08:07;;;;;;;9.47;3.60;;;17.90;4.20;;;;;;6193482;23;20415;-83
2023/04/26 13:10:34;;;;;;;6.40;2.90;;;18.20;3.20;;;;;;6193974;23;20444;-83